sensor_id;sensor_type;location;lat;lon;timestamp;P1;durP1;ratioP1;P2;durP2;ratioP2
49241;SDS011;35079;52.704;13.814;2023-07-13T00:01:16;5.85;;;2.50;;
49241;SDS011;35079;52.704;13.814;2023-07-13T00:03:42;4.85;;;2.10;;
49241;SDS011;35079;52.704;13.814;2023-07-13T00:06:08;3.88;;;2.85;;
49241;SDS011;35079;52.704;13.814;2023-07-13T00:08:34;5.72;;;2.30;;
49241;SDS011;35079;52.704;13.814;2023-07-13T00:11:00;3.88;;;2.17;;
49241;SDS011;35079;52.704;13.814;2023-07-13T00:13:27;6.40;;;2.70;;
49241;SDS011;35079;52.704;13.814;2023-07-13T00:15:54;3.80;;;2.35;;
49241;SDS011;35079;52.704;13.814;2023-07-13T00:18:22;3.83;;;2.60;;
49241;SDS011;35079;52.704;13.814;2023-07-13T00:20:48;4.18;;;2.63;;
49241;SDS011;35079;52.704;13.814;2023-07-13T00:23:14;3.38;;;2.33;;
49241;SDS011;35079;52.704;13.814;2023-07-13T00:25:40;3.38;;;2.60;;
49241;SDS011;35079;52.704;13.814;2023-07-13T00:28:05;5.25;;;2.80;;
49241;SDS011;35079;52.704;13.814;2023-07-13T00:30:31;4.22;;;2.92;;
49241;SDS011;35079;52.704;13.814;2023-07-13T00:32:56;4.95;;;3.17;;
49241;SDS011;35079;52.704;13.814;2023-07-13T00:35:22;6.03;;;2.80;;
49241;SDS011;35079;52.704;13.814;2023-07-13T00:37:48;6.18;;;2.80;;
49241;SDS011;35079;52.704;13.814;2023-07-13T00:40:14;4.20;;;2.80;;
49241;SDS011;35079;52.704;13.814;2023-07-13T00:42:40;4.30;;;2.90;;
49241;SDS011;35079;52.704;13.814;2023-07-13T00:47:41;4.20;;;2.90;;
49241;SDS011;35079;52.704;13.814;2023-07-13T00:50:09;5.40;;;3.10;;
49241;SDS011;35079;52.704;13.814;2023-07-13T00:52:41;7.03;;;2.95;;
49241;SDS011;35079;52.704;13.814;2023-07-13T00:55:10;6.47;;;3.05;;
49241;SDS011;35079;52.704;13.814;2023-07-13T00:57:37;7.40;;;3.28;;
49241;SDS011;35079;52.704;13.814;2023-07-13T01:00:04;6.60;;;3.08;;
49241;SDS011;35079;52.704;13.814;2023-07-13T01:02:35;6.03;;;2.92;;
49241;SDS011;35079;52.704;13.814;2023-07-13T01:05:08;4.95;;;2.90;;
49241;SDS011;35079;52.704;13.814;2023-07-13T01:07:39;5.45;;;3.00;;
49241;SDS011;35079;52.704;13.814;2023-07-13T01:10:06;6.75;;;2.85;;
49241;SDS011;35079;52.704;13.814;2023-07-13T01:12:32;5.45;;;2.95;;
49241;SDS011;35079;52.704;13.814;2023-07-13T01:14:58;5.15;;;3.38;;
49241;SDS011;35079;52.704;13.814;2023-07-13T01:17:25;8.20;;;3.30;;
49241;SDS011;35079;52.704;13.814;2023-07-13T01:19:52;4.90;;;3.45;;
49241;SDS011;35079;52.704;13.814;2023-07-13T01:22:18;4.63;;;3.15;;
49241;SDS011;35079;52.704;13.814;2023-07-13T01:24:45;4.15;;;3.10;;
49241;SDS011;35079;52.704;13.814;2023-07-13T01:27:14;7.03;;;3.13;;
49241;SDS011;35079;52.704;13.814;2023-07-13T01:29:43;6.05;;;3.10;;
49241;SDS011;35079;52.704;13.814;2023-07-13T01:32:29;7.90;;;3.45;;
49241;SDS011;35079;52.704;13.814;2023-07-13T01:34:56;4.63;;;3.20;;
49241;SDS011;35079;52.704;13.814;2023-07-13T01:37:22;6.20;;;3.50;;
49241;SDS011;35079;52.704;13.814;2023-07-13T01:39:49;3.63;;;3.33;;
49241;SDS011;35079;52.704;13.814;2023-07-13T01:42:15;5.00;;;3.42;;
49241;SDS011;35079;52.704;13.814;2023-07-13T01:44:41;11.02;;;4.00;;
49241;SDS011;35079;52.704;13.814;2023-07-13T01:47:09;7.80;;;3.38;;
49241;SDS011;35079;52.704;13.814;2023-07-13T01:49:35;7.43;;;3.22;;
49241;SDS011;35079;52.704;13.814;2023-07-13T01:52:02;7.00;;;3.40;;
49241;SDS011;35079;52.704;13.814;2023-07-13T01:54:28;5.80;;;3.25;;
49241;SDS011;35079;52.704;13.814;2023-07-13T01:56:54;5.15;;;2.97;;
49241;SDS011;35079;52.704;13.814;2023-07-13T01:59:19;3.85;;;3.20;;
49241;SDS011;35079;52.704;13.814;2023-07-13T02:01:45;6.90;;;3.40;;
49241;SDS011;35079;52.704;13.814;2023-07-13T02:04:10;9.38;;;3.70;;
49241;SDS011;35079;52.704;13.814;2023-07-13T02:06:36;4.72;;;3.17;;
49241;SDS011;35079;52.704;13.814;2023-07-13T02:09:02;4.82;;;3.00;;
49241;SDS011;35079;52.704;13.814;2023-07-13T02:11:27;5.78;;;3.35;;
49241;SDS011;35079;52.704;13.814;2023-07-13T02:13:57;5.45;;;3.17;;
49241;SDS011;35079;52.704;13.814;2023-07-13T02:16:27;5.30;;;3.55;;
49241;SDS011;35079;52.704;13.814;2023-07-13T02:18:53;4.18;;;3.42;;
49241;SDS011;35079;52.704;13.814;2023-07-13T02:21:20;5.85;;;3.38;;
49241;SDS011;35079;52.704;13.814;2023-07-13T02:23:46;7.10;;;3.85;;
49241;SDS011;35079;52.704;13.814;2023-07-13T02:26:12;7.78;;;3.90;;
49241;SDS011;35079;52.704;13.814;2023-07-13T02:28:38;5.20;;;3.60;;
49241;SDS011;35079;52.704;13.814;2023-07-13T02:31:07;5.15;;;3.60;;
49241;SDS011;35079;52.704;13.814;2023-07-13T02:33:35;6.82;;;3.60;;
49241;SDS011;35079;52.704;13.814;2023-07-13T02:36:00;6.70;;;3.60;;
49241;SDS011;35079;52.704;13.814;2023-07-13T02:38:26;7.13;;;3.50;;
49241;SDS011;35079;52.704;13.814;2023-07-13T02:40:52;6.45;;;3.45;;
49241;SDS011;35079;52.704;13.814;2023-07-13T02:43:18;6.78;;;3.35;;
49241;SDS011;35079;52.704;13.814;2023-07-13T02:45:44;4.47;;;3.30;;
49241;SDS011;35079;52.704;13.814;2023-07-13T02:48:10;4.43;;;2.97;;
49241;SDS011;35079;52.704;13.814;2023-07-13T02:50:36;4.20;;;3.20;;
49241;SDS011;35079;52.704;13.814;2023-07-13T02:53:01;4.68;;;3.45;;
49241;SDS011;35079;52.704;13.814;2023-07-13T02:55:27;5.28;;;3.33;;
49241;SDS011;35079;52.704;13.814;2023-07-13T02:57:52;4.40;;;3.38;;
49241;SDS011;35079;52.704;13.814;2023-07-13T03:00:19;4.28;;;3.30;;
49241;SDS011;35079;52.704;13.814;2023-07-13T03:02:45;3.83;;;3.30;;
49241;SDS011;35079;52.704;13.814;2023-07-13T03:05:10;5.72;;;3.35;;
49241;SDS011;35079;52.704;13.814;2023-07-13T03:07:37;6.00;;;3.72;;
49241;SDS011;35079;52.704;13.814;2023-07-13T03:10:03;4.55;;;3.53;;
49241;SDS011;35079;52.704;13.814;2023-07-13T03:12:29;6.25;;;3.85;;
49241;SDS011;35079;52.704;13.814;2023-07-13T03:14:55;6.07;;;3.50;;
49241;SDS011;35079;52.704;13.814;2023-07-13T03:17:22;6.15;;;3.75;;
49241;SDS011;35079;52.704;13.814;2023-07-13T03:19:47;4.32;;;3.85;;
49241;SDS011;35079;52.704;13.814;2023-07-13T03:22:15;7.50;;;3.58;;
49241;SDS011;35079;52.704;13.814;2023-07-13T03:24:42;4.57;;;3.65;;
49241;SDS011;35079;52.704;13.814;2023-07-13T03:27:08;7.30;;;3.78;;
49241;SDS011;35079;52.704;13.814;2023-07-13T03:29:34;4.38;;;3.90;;
49241;SDS011;35079;52.704;13.814;2023-07-13T03:31:59;6.18;;;3.67;;
49241;SDS011;35079;52.704;13.814;2023-07-13T03:34:25;6.05;;;3.75;;
49241;SDS011;35079;52.704;13.814;2023-07-13T03:36:53;7.82;;;3.63;;
49241;SDS011;35079;52.704;13.814;2023-07-13T03:39:19;4.43;;;3.45;;
49241;SDS011;35079;52.704;13.814;2023-07-13T03:41:45;5.85;;;3.75;;
49241;SDS011;35079;52.704;13.814;2023-07-13T03:44:11;4.78;;;3.97;;
49241;SDS011;35079;52.704;13.814;2023-07-13T03:46:37;7.05;;;4.10;;
49241;SDS011;35079;52.704;13.814;2023-07-13T03:49:03;6.40;;;3.85;;
49241;SDS011;35079;52.704;13.814;2023-07-13T03:51:30;5.55;;;3.78;;
49241;SDS011;35079;52.704;13.814;2023-07-13T03:53:56;4.78;;;3.85;;
49241;SDS011;35079;52.704;13.814;2023-07-13T03:56:22;5.65;;;4.13;;
49241;SDS011;35079;52.704;13.814;2023-07-13T03:58:48;6.82;;;3.92;;
49241;SDS011;35079;52.704;13.814;2023-07-13T04:01:15;5.57;;;4.05;;
49241;SDS011;35079;52.704;13.814;2023-07-13T04:03:42;4.82;;;3.70;;
49241;SDS011;35079;52.704;13.814;2023-07-13T04:06:12;8.52;;;4.38;;
49241;SDS011;35079;52.704;13.814;2023-07-13T04:08:46;5.60;;;4.03;;
49241;SDS011;35079;52.704;13.814;2023-07-13T04:11:17;7.32;;;4.07;;
49241;SDS011;35079;52.704;13.814;2023-07-13T04:13:44;7.43;;;4.25;;
49241;SDS011;35079;52.704;13.814;2023-07-13T04:16:10;5.13;;;4.28;;
49241;SDS011;35079;52.704;13.814;2023-07-13T04:18:36;8.32;;;4.35;;
49241;SDS011;35079;52.704;13.814;2023-07-13T04:21:01;8.68;;;4.60;;
49241;SDS011;35079;52.704;13.814;2023-07-13T04:23:27;7.95;;;4.85;;
49241;SDS011;35079;52.704;13.814;2023-07-13T04:25:53;4.20;;;3.80;;
49241;SDS011;35079;52.704;13.814;2023-07-13T04:28:19;7.55;;;4.65;;
49241;SDS011;35079;52.704;13.814;2023-07-13T04:30:49;7.00;;;4.82;;
49241;SDS011;35079;52.704;13.814;2023-07-13T04:33:14;7.13;;;4.65;;
49241;SDS011;35079;52.704;13.814;2023-07-13T04:35:42;7.20;;;4.63;;
49241;SDS011;35079;52.704;13.814;2023-07-13T04:38:08;5.97;;;4.40;;
49241;SDS011;35079;52.704;13.814;2023-07-13T04:40:36;6.30;;;4.50;;
49241;SDS011;35079;52.704;13.814;2023-07-13T04:43:02;4.95;;;4.45;;
49241;SDS011;35079;52.704;13.814;2023-07-13T04:45:27;5.70;;;4.30;;
49241;SDS011;35079;52.704;13.814;2023-07-13T04:47:53;7.18;;;4.53;;
49241;SDS011;35079;52.704;13.814;2023-07-13T04:50:19;7.15;;;4.60;;
49241;SDS011;35079;52.704;13.814;2023-07-13T04:52:48;5.97;;;4.60;;
49241;SDS011;35079;52.704;13.814;2023-07-13T04:55:15;6.95;;;4.35;;
49241;SDS011;35079;52.704;13.814;2023-07-13T04:57:41;5.45;;;4.13;;
49241;SDS011;35079;52.704;13.814;2023-07-13T05:00:07;6.38;;;4.20;;
49241;SDS011;35079;52.704;13.814;2023-07-13T05:02:33;7.38;;;4.00;;
49241;SDS011;35079;52.704;13.814;2023-07-13T05:05:00;5.97;;;4.20;;
49241;SDS011;35079;52.704;13.814;2023-07-13T05:07:26;5.53;;;3.92;;
49241;SDS011;35079;52.704;13.814;2023-07-13T05:09:52;7.13;;;4.28;;
49241;SDS011;35079;52.704;13.814;2023-07-13T05:12:18;5.07;;;3.83;;
49241;SDS011;35079;52.704;13.814;2023-07-13T05:14:43;4.90;;;4.07;;
49241;SDS011;35079;52.704;13.814;2023-07-13T05:17:09;5.68;;;4.13;;
49241;SDS011;35079;52.704;13.814;2023-07-13T05:19:35;7.57;;;4.38;;
49241;SDS011;35079;52.704;13.814;2023-07-13T05:22:01;6.07;;;4.00;;
49241;SDS011;35079;52.704;13.814;2023-07-13T05:24:27;5.15;;;3.75;;
49241;SDS011;35079;52.704;13.814;2023-07-13T05:26:53;8.38;;;4.35;;
49241;SDS011;35079;52.704;13.814;2023-07-13T05:29:19;4.97;;;3.40;;
49241;SDS011;35079;52.704;13.814;2023-07-13T05:31:45;4.55;;;3.17;;
49241;SDS011;35079;52.704;13.814;2023-07-13T05:34:11;5.18;;;3.20;;
49241;SDS011;35079;52.704;13.814;2023-07-13T05:36:36;3.83;;;3.05;;
49241;SDS011;35079;52.704;13.814;2023-07-13T05:39:02;5.05;;;3.10;;
49241;SDS011;35079;52.704;13.814;2023-07-13T05:41:29;4.65;;;3.08;;
49241;SDS011;35079;52.704;13.814;2023-07-13T05:43:54;6.25;;;3.08;;
49241;SDS011;35079;52.704;13.814;2023-07-13T05:46:20;4.75;;;2.95;;
49241;SDS011;35079;52.704;13.814;2023-07-13T05:48:46;6.47;;;2.95;;
49241;SDS011;35079;52.704;13.814;2023-07-13T05:51:12;5.00;;;3.00;;
49241;SDS011;35079;52.704;13.814;2023-07-13T05:53:38;7.55;;;2.70;;
49241;SDS011;35079;52.704;13.814;2023-07-13T05:56:04;2.97;;;2.20;;
49241;SDS011;35079;52.704;13.814;2023-07-13T05:58:30;3.42;;;1.92;;
49241;SDS011;35079;52.704;13.814;2023-07-13T06:01:02;3.92;;;1.90;;
49241;SDS011;35079;52.704;13.814;2023-07-13T06:03:29;4.27;;;1.80;;
49241;SDS011;35079;52.704;13.814;2023-07-13T06:05:55;3.95;;;1.67;;
49241;SDS011;35079;52.704;13.814;2023-07-13T06:08:21;2.45;;;1.80;;
49241;SDS011;35079;52.704;13.814;2023-07-13T06:10:46;4.72;;;1.73;;
49241;SDS011;35079;52.704;13.814;2023-07-13T06:13:12;6.30;;;1.77;;
49241;SDS011;35079;52.704;13.814;2023-07-13T06:15:38;3.42;;;1.58;;
49241;SDS011;35079;52.704;13.814;2023-07-13T06:18:03;2.50;;;1.67;;
49241;SDS011;35079;52.704;13.814;2023-07-13T06:20:29;3.03;;;1.80;;
49241;SDS011;35079;52.704;13.814;2023-07-13T06:22:55;4.43;;;1.80;;
49241;SDS011;35079;52.704;13.814;2023-07-13T06:25:21;5.90;;;2.15;;
49241;SDS011;35079;52.704;13.814;2023-07-13T06:27:47;3.17;;;1.80;;
49241;SDS011;35079;52.704;13.814;2023-07-13T06:30:13;3.58;;;1.80;;
49241;SDS011;35079;52.704;13.814;2023-07-13T06:32:41;3.67;;;1.73;;
49241;SDS011;35079;52.704;13.814;2023-07-13T06:35:10;4.03;;;1.63;;
49241;SDS011;35079;52.704;13.814;2023-07-13T06:37:37;2.72;;;1.77;;
49241;SDS011;35079;52.704;13.814;2023-07-13T06:42:54;3.33;;;1.85;;
49241;SDS011;35079;52.704;13.814;2023-07-13T06:45:20;2.75;;;1.73;;
49241;SDS011;35079;52.704;13.814;2023-07-13T06:47:45;3.45;;;1.80;;
49241;SDS011;35079;52.704;13.814;2023-07-13T06:50:11;4.50;;;1.70;;
49241;SDS011;35079;52.704;13.814;2023-07-13T06:52:37;4.78;;;1.92;;
49241;SDS011;35079;52.704;13.814;2023-07-13T06:55:05;3.28;;;1.67;;
49241;SDS011;35079;52.704;13.814;2023-07-13T06:57:32;5.03;;;2.10;;
49241;SDS011;35079;52.704;13.814;2023-07-13T07:00:01;4.30;;;1.88;;
49241;SDS011;35079;52.704;13.814;2023-07-13T07:02:34;3.67;;;1.70;;
49241;SDS011;35079;52.704;13.814;2023-07-13T07:05:00;3.65;;;1.60;;
49241;SDS011;35079;52.704;13.814;2023-07-13T07:07:26;3.55;;;1.65;;
49241;SDS011;35079;52.704;13.814;2023-07-13T07:09:51;5.55;;;1.88;;
49241;SDS011;35079;52.704;13.814;2023-07-13T07:12:17;3.75;;;1.70;;
49241;SDS011;35079;52.704;13.814;2023-07-13T07:14:43;4.28;;;1.52;;
49241;SDS011;35079;52.704;13.814;2023-07-13T07:17:08;2.33;;;1.42;;
49241;SDS011;35079;52.704;13.814;2023-07-13T07:19:34;3.67;;;1.40;;
49241;SDS011;35079;52.704;13.814;2023-07-13T07:22:00;3.20;;;1.85;;
49241;SDS011;35079;52.704;13.814;2023-07-13T07:24:26;2.50;;;1.73;;
49241;SDS011;35079;52.704;13.814;2023-07-13T07:26:52;4.53;;;1.65;;
49241;SDS011;35079;52.704;13.814;2023-07-13T07:29:17;2.70;;;1.50;;
49241;SDS011;35079;52.704;13.814;2023-07-13T07:31:43;4.53;;;1.27;;
49241;SDS011;35079;52.704;13.814;2023-07-13T07:34:09;3.22;;;1.35;;
49241;SDS011;35079;52.704;13.814;2023-07-13T07:36:34;2.80;;;1.30;;
49241;SDS011;35079;52.704;13.814;2023-07-13T07:39:00;2.65;;;1.05;;
49241;SDS011;35079;52.704;13.814;2023-07-13T07:41:25;3.47;;;1.23;;
49241;SDS011;35079;52.704;13.814;2023-07-13T07:43:51;3.30;;;1.40;;
49241;SDS011;35079;52.704;13.814;2023-07-13T07:46:17;2.40;;;1.23;;
49241;SDS011;35079;52.704;13.814;2023-07-13T07:48:42;3.50;;;1.20;;
49241;SDS011;35079;52.704;13.814;2023-07-13T07:51:08;2.15;;;1.20;;
49241;SDS011;35079;52.704;13.814;2023-07-13T07:53:34;3.95;;;1.33;;
49241;SDS011;35079;52.704;13.814;2023-07-13T07:55:59;2.83;;;1.23;;
49241;SDS011;35079;52.704;13.814;2023-07-13T07:58:25;4.45;;;1.27;;
49241;SDS011;35079;52.704;13.814;2023-07-13T08:00:51;3.35;;;1.10;;
49241;SDS011;35079;52.704;13.814;2023-07-13T08:03:16;3.08;;;1.30;;
49241;SDS011;35079;52.704;13.814;2023-07-13T08:05:42;2.53;;;1.33;;
49241;SDS011;35079;52.704;13.814;2023-07-13T08:08:07;3.47;;;1.55;;
49241;SDS011;35079;52.704;13.814;2023-07-13T08:10:34;3.50;;;1.00;;
49241;SDS011;35079;52.704;13.814;2023-07-13T08:13:01;3.40;;;1.27;;
49241;SDS011;35079;52.704;13.814;2023-07-13T08:15:27;4.03;;;1.08;;
49241;SDS011;35079;52.704;13.814;2023-07-13T08:17:53;4.43;;;1.08;;
49241;SDS011;35079;52.704;13.814;2023-07-13T08:20:18;4.30;;;1.13;;
49241;SDS011;35079;52.704;13.814;2023-07-13T08:22:44;2.83;;;1.23;;
49241;SDS011;35079;52.704;13.814;2023-07-13T08:25:09;2.72;;;1.10;;
49241;SDS011;35079;52.704;13.814;2023-07-13T08:27:35;1.55;;;1.05;;
49241;SDS011;35079;52.704;13.814;2023-07-13T08:30:01;2.47;;;0.90;;
49241;SDS011;35079;52.704;13.814;2023-07-13T08:32:27;4.03;;;1.48;;
49241;SDS011;35079;52.704;13.814;2023-07-13T08:34:52;1.60;;;0.95;;
49241;SDS011;35079;52.704;13.814;2023-07-13T08:37:18;5.75;;;1.20;;
49241;SDS011;35079;52.704;13.814;2023-07-13T08:39:44;2.58;;;0.82;;
49241;SDS011;35079;52.704;13.814;2023-07-13T08:45:24;2.25;;;1.02;;
49241;SDS011;35079;52.704;13.814;2023-07-13T08:50:32;2.15;;;0.80;;
49241;SDS011;35079;52.704;13.814;2023-07-13T08:53:02;3.67;;;1.27;;
49241;SDS011;35079;52.704;13.814;2023-07-13T08:55:30;3.13;;;0.95;;
49241;SDS011;35079;52.704;13.814;2023-07-13T08:58:32;3.58;;;1.23;;
49241;SDS011;35079;52.704;13.814;2023-07-13T09:03:42;2.03;;;1.00;;
49241;SDS011;35079;52.704;13.814;2023-07-13T09:06:20;1.80;;;0.93;;
49241;SDS011;35079;52.704;13.814;2023-07-13T09:08:56;1.67;;;0.83;;
49241;SDS011;35079;52.704;13.814;2023-07-13T09:11:35;2.08;;;1.20;;
49241;SDS011;35079;52.704;13.814;2023-07-13T09:16:58;2.13;;;1.00;;
49241;SDS011;35079;52.704;13.814;2023-07-13T09:19:26;3.90;;;0.88;;
49241;SDS011;35079;52.704;13.814;2023-07-13T09:21:57;2.15;;;1.00;;
49241;SDS011;35079;52.704;13.814;2023-07-13T09:24:38;2.58;;;1.10;;
49241;SDS011;35079;52.704;13.814;2023-07-13T09:27:19;2.00;;;0.88;;
49241;SDS011;35079;52.704;13.814;2023-07-13T09:29:49;3.05;;;0.88;;
49241;SDS011;35079;52.704;13.814;2023-07-13T09:32:21;6.38;;;1.25;;
49241;SDS011;35079;52.704;13.814;2023-07-13T09:34:51;1.30;;;0.95;;
49241;SDS011;35079;52.704;13.814;2023-07-13T09:37:19;1.88;;;0.98;;
49241;SDS011;35079;52.704;13.814;2023-07-13T09:39:47;1.60;;;0.95;;
49241;SDS011;35079;52.704;13.814;2023-07-13T09:42:18;2.42;;;1.10;;
49241;SDS011;35079;52.704;13.814;2023-07-13T09:44:55;3.45;;;1.10;;
49241;SDS011;35079;52.704;13.814;2023-07-13T09:47:29;3.85;;;1.10;;
49241;SDS011;35079;52.704;13.814;2023-07-13T09:49:56;2.58;;;1.13;;
49241;SDS011;35079;52.704;13.814;2023-07-13T09:52:28;2.30;;;1.17;;
49241;SDS011;35079;52.704;13.814;2023-07-13T09:55:12;4.13;;;1.10;;
49241;SDS011;35079;52.704;13.814;2023-07-13T09:57:49;2.75;;;1.10;;
49241;SDS011;35079;52.704;13.814;2023-07-13T10:00:27;3.70;;;1.20;;
49241;SDS011;35079;52.704;13.814;2023-07-13T10:05:42;2.83;;;1.10;;
49241;SDS011;35079;52.704;13.814;2023-07-13T10:10:59;3.75;;;1.13;;
49241;SDS011;35079;52.704;13.814;2023-07-13T10:13:32;3.30;;;1.00;;
49241;SDS011;35079;52.704;13.814;2023-07-13T10:16:02;2.75;;;1.13;;
49241;SDS011;35079;52.704;13.814;2023-07-13T10:18:38;1.42;;;1.00;;
49241;SDS011;35079;52.704;13.814;2023-07-13T10:21:13;1.83;;;1.00;;
49241;SDS011;35079;52.704;13.814;2023-07-13T10:23:42;1.90;;;1.17;;
49241;SDS011;35079;52.704;13.814;2023-07-13T10:26:13;1.77;;;0.88;;
49241;SDS011;35079;52.704;13.814;2023-07-13T10:28:55;2.22;;;1.23;;
49241;SDS011;35079;52.704;13.814;2023-07-13T10:31:24;1.88;;;1.20;;
49241;SDS011;35079;52.704;13.814;2023-07-13T10:33:49;2.05;;;1.15;;
49241;SDS011;35079;52.704;13.814;2023-07-13T10:36:18;2.35;;;1.10;;
49241;SDS011;35079;52.704;13.814;2023-07-13T10:38:54;2.13;;;1.10;;
49241;SDS011;35079;52.704;13.814;2023-07-13T10:41:22;3.40;;;1.27;;
49241;SDS011;35079;52.704;13.814;2023-07-13T10:43:51;3.67;;;1.52;;
49241;SDS011;35079;52.704;13.814;2023-07-13T10:46:20;3.65;;;1.30;;
49241;SDS011;35079;52.704;13.814;2023-07-13T10:48:51;3.05;;;1.60;;
49241;SDS011;35079;52.704;13.814;2023-07-13T10:51:20;2.75;;;1.23;;
49241;SDS011;35079;52.704;13.814;2023-07-13T10:53:47;2.13;;;1.23;;
49241;SDS011;35079;52.704;13.814;2023-07-13T10:56:33;2.30;;;1.30;;
49241;SDS011;35079;52.704;13.814;2023-07-13T11:01:39;2.30;;;1.35;;
49241;SDS011;35079;52.704;13.814;2023-07-13T11:04:11;2.95;;;1.48;;
49241;SDS011;35079;52.704;13.814;2023-07-13T11:06:45;3.47;;;1.58;;
49241;SDS011;35079;52.704;13.814;2023-07-13T11:11:56;2.70;;;1.30;;
49241;SDS011;35079;52.704;13.814;2023-07-13T11:14:42;3.60;;;1.50;;
49241;SDS011;35079;52.704;13.814;2023-07-13T11:20:40;2.72;;;1.30;;
49241;SDS011;35079;52.704;13.814;2023-07-13T11:22:45;2.15;;;1.40;;
49241;SDS011;35079;52.704;13.814;2023-07-13T11:25:25;2.70;;;1.35;;
49241;SDS011;35079;52.704;13.814;2023-07-13T11:28:16;4.38;;;1.48;;
49241;SDS011;35079;52.704;13.814;2023-07-13T11:30:50;5.07;;;1.52;;
49241;SDS011;35079;52.704;13.814;2023-07-13T11:36:23;3.22;;;1.60;;
49241;SDS011;35079;52.704;13.814;2023-07-13T11:38:58;3.33;;;1.27;;
49241;SDS011;35079;52.704;13.814;2023-07-13T11:41:44;5.00;;;1.52;;
49241;SDS011;35079;52.704;13.814;2023-07-13T11:44:22;3.10;;;1.60;;
49241;SDS011;35079;52.704;13.814;2023-07-13T11:46:52;3.30;;;1.60;;
49241;SDS011;35079;52.704;13.814;2023-07-13T11:49:25;2.83;;;1.55;;
49241;SDS011;35079;52.704;13.814;2023-07-13T11:51:54;2.58;;;1.48;;
49241;SDS011;35079;52.704;13.814;2023-07-13T11:54:22;4.00;;;1.45;;
49241;SDS011;35079;52.704;13.814;2023-07-13T11:56:51;4.68;;;1.15;;
49241;SDS011;35079;52.704;13.814;2023-07-13T11:59:17;3.97;;;1.40;;
49241;SDS011;35079;52.704;13.814;2023-07-13T12:01:44;1.55;;;1.13;;
49241;SDS011;35079;52.704;13.814;2023-07-13T12:04:26;1.48;;;1.10;;
49241;SDS011;35079;52.704;13.814;2023-07-13T12:07:04;3.88;;;1.58;;
49241;SDS011;35079;52.704;13.814;2023-07-13T12:09:34;3.55;;;1.20;;
49241;SDS011;35079;52.704;13.814;2023-07-13T12:12:01;4.35;;;1.50;;
49241;SDS011;35079;52.704;13.814;2023-07-13T12:14:27;2.55;;;1.52;;
49241;SDS011;35079;52.704;13.814;2023-07-13T12:16:53;5.25;;;1.73;;
49241;SDS011;35079;52.704;13.814;2023-07-13T12:19:20;4.38;;;1.30;;
49241;SDS011;35079;52.704;13.814;2023-07-13T12:21:49;5.40;;;1.60;;
49241;SDS011;35079;52.704;13.814;2023-07-13T12:24:18;3.97;;;1.75;;
49241;SDS011;35079;52.704;13.814;2023-07-13T12:26:50;4.00;;;1.60;;
49241;SDS011;35079;52.704;13.814;2023-07-13T12:29:39;2.87;;;1.20;;
49241;SDS011;35079;52.704;13.814;2023-07-13T12:32:14;2.20;;;1.50;;
49241;SDS011;35079;52.704;13.814;2023-07-13T12:37:44;2.28;;;1.40;;
49241;SDS011;35079;52.704;13.814;2023-07-13T12:40:18;3.40;;;1.35;;
49241;SDS011;35079;52.704;13.814;2023-07-13T12:42:47;2.63;;;1.67;;
49241;SDS011;35079;52.704;13.814;2023-07-13T12:45:21;2.95;;;1.50;;
49241;SDS011;35079;52.704;13.814;2023-07-13T12:47:52;2.67;;;1.42;;
49241;SDS011;35079;52.704;13.814;2023-07-13T12:50:36;4.85;;;1.58;;
49241;SDS011;35079;52.704;13.814;2023-07-13T12:53:09;5.25;;;1.75;;
49241;SDS011;35079;52.704;13.814;2023-07-13T12:55:57;7.30;;;1.98;;
49241;SDS011;35079;52.704;13.814;2023-07-13T12:58:36;2.10;;;1.40;;
49241;SDS011;35079;52.704;13.814;2023-07-13T13:01:09;3.38;;;1.50;;
49241;SDS011;35079;52.704;13.814;2023-07-13T13:03:45;3.97;;;1.60;;
49241;SDS011;35079;52.704;13.814;2023-07-13T13:08:45;5.18;;;1.40;;
49241;SDS011;35079;52.704;13.814;2023-07-13T13:11:13;3.20;;;1.40;;
49241;SDS011;35079;52.704;13.814;2023-07-13T13:13:41;4.63;;;1.50;;
49241;SDS011;35079;52.704;13.814;2023-07-13T13:16:23;2.05;;;1.40;;
49241;SDS011;35079;52.704;13.814;2023-07-13T13:18:57;3.92;;;2.00;;
49241;SDS011;35079;52.704;13.814;2023-07-13T13:21:25;3.80;;;1.80;;
49241;SDS011;35079;52.704;13.814;2023-07-13T13:23:51;3.47;;;1.70;;
49241;SDS011;35079;52.704;13.814;2023-07-13T13:26:18;2.15;;;1.35;;
49241;SDS011;35079;52.704;13.814;2023-07-13T13:28:45;2.95;;;1.40;;
49241;SDS011;35079;52.704;13.814;2023-07-13T13:31:12;2.50;;;1.50;;
49241;SDS011;35079;52.704;13.814;2023-07-13T13:33:40;5.22;;;1.40;;
49241;SDS011;35079;52.704;13.814;2023-07-13T13:36:29;3.00;;;1.60;;
49241;SDS011;35079;52.704;13.814;2023-07-13T13:38:54;4.22;;;1.75;;
49241;SDS011;35079;52.704;13.814;2023-07-13T13:41:20;3.38;;;1.83;;
49241;SDS011;35079;52.704;13.814;2023-07-13T13:43:45;3.53;;;1.60;;
49241;SDS011;35079;52.704;13.814;2023-07-13T13:46:13;5.05;;;1.85;;
49241;SDS011;35079;52.704;13.814;2023-07-13T13:48:41;4.55;;;1.73;;
49241;SDS011;35079;52.704;13.814;2023-07-13T13:51:17;4.50;;;1.60;;
49241;SDS011;35079;52.704;13.814;2023-07-13T13:53:45;3.33;;;1.73;;
49241;SDS011;35079;52.704;13.814;2023-07-13T13:56:12;2.83;;;1.30;;
49241;SDS011;35079;52.704;13.814;2023-07-13T13:58:38;3.03;;;1.33;;
49241;SDS011;35079;52.704;13.814;2023-07-13T14:01:04;2.58;;;1.55;;
49241;SDS011;35079;52.704;13.814;2023-07-13T14:03:37;4.78;;;1.70;;
49241;SDS011;35079;52.704;13.814;2023-07-13T14:06:02;4.72;;;1.50;;
49241;SDS011;35079;52.704;13.814;2023-07-13T14:08:28;3.28;;;1.55;;
49241;SDS011;35079;52.704;13.814;2023-07-13T14:10:55;3.63;;;1.63;;
49241;SDS011;35079;52.704;13.814;2023-07-13T14:13:32;4.75;;;1.65;;
49241;SDS011;35079;52.704;13.814;2023-07-13T14:16:02;4.63;;;1.60;;
49241;SDS011;35079;52.704;13.814;2023-07-13T14:18:33;2.47;;;1.60;;
49241;SDS011;35079;52.704;13.814;2023-07-13T14:20:59;6.50;;;1.90;;
49241;SDS011;35079;52.704;13.814;2023-07-13T14:23:24;5.10;;;1.60;;
49241;SDS011;35079;52.704;13.814;2023-07-13T14:25:50;3.40;;;1.80;;
49241;SDS011;35079;52.704;13.814;2023-07-13T14:28:24;4.82;;;1.85;;
49241;SDS011;35079;52.704;13.814;2023-07-13T14:30:51;4.20;;;1.42;;
49241;SDS011;35079;52.704;13.814;2023-07-13T14:33:19;3.72;;;1.85;;
49241;SDS011;35079;52.704;13.814;2023-07-13T14:35:45;4.07;;;1.83;;
49241;SDS011;35079;52.704;13.814;2023-07-13T14:38:12;3.42;;;1.35;;
49241;SDS011;35079;52.704;13.814;2023-07-13T14:40:40;3.75;;;1.55;;
49241;SDS011;35079;52.704;13.814;2023-07-13T14:43:09;2.63;;;1.55;;
49241;SDS011;35079;52.704;13.814;2023-07-13T14:45:40;3.63;;;1.30;;
49241;SDS011;35079;52.704;13.814;2023-07-13T14:48:12;5.07;;;1.63;;
49241;SDS011;35079;52.704;13.814;2023-07-13T14:50:45;2.17;;;1.30;;
49241;SDS011;35079;52.704;13.814;2023-07-13T14:53:12;2.75;;;1.40;;
49241;SDS011;35079;52.704;13.814;2023-07-13T14:55:38;3.90;;;1.52;;
49241;SDS011;35079;52.704;13.814;2023-07-13T14:58:04;5.10;;;1.58;;
49241;SDS011;35079;52.704;13.814;2023-07-13T15:00:30;4.70;;;1.70;;
49241;SDS011;35079;52.704;13.814;2023-07-13T15:02:57;5.28;;;1.55;;
49241;SDS011;35079;52.704;13.814;2023-07-13T15:05:28;5.28;;;1.75;;
49241;SDS011;35079;52.704;13.814;2023-07-13T15:07:57;4.40;;;1.67;;
49241;SDS011;35079;52.704;13.814;2023-07-13T15:10:31;1.48;;;1.30;;
49241;SDS011;35079;52.704;13.814;2023-07-13T15:13:04;4.70;;;1.50;;
49241;SDS011;35079;52.704;13.814;2023-07-13T15:18:11;4.95;;;1.63;;
49241;SDS011;35079;52.704;13.814;2023-07-13T15:20:37;3.33;;;1.10;;
49241;SDS011;35079;52.704;13.814;2023-07-13T15:23:04;3.30;;;1.50;;